sensor_id;sensor_type;location;lat;lon;timestamp;P1;durP1;ratioP1;P2;durP2;ratioP2
21120;SDS011;12519;43.318;21.898;2023-02-23T00:00:10;50.0;;;46.0;;
21120;SDS011;12519;43.318;21.898;2023-02-23T00:04:52;47.0;;;45.0;;
21120;SDS011;12519;43.318;21.898;2023-02-23T00:09:28;47.0;;;45.0;;
21120;SDS011;12519;43.318;21.898;2023-02-23T00:14:05;47.0;;;45.0;;
21120;SDS011;12519;43.318;21.898;2023-02-23T00:18:43;52.0;;;47.0;;
21120;SDS011;12519;43.318;21.898;2023-02-23T00:23:28;52.0;;;47.0;;
21120;SDS011;12519;43.318;21.898;2023-02-23T00:28:05;58.0;;;49.0;;
21120;SDS011;12519;43.318;21.898;2023-02-23T00:32:41;58.0;;;49.0;;
21120;SDS011;12519;43.318;21.898;2023-02-23T00:37:20;58.0;;;48.0;;
21120;SDS011;12519;43.318;21.898;2023-02-23T00:41:56;58.0;;;48.0;;
21120;SDS011;12519;43.318;21.898;2023-02-23T00:46:33;57.0;;;47.0;;
21120;SDS011;12519;43.318;21.898;2023-02-23T00:51:11;57.0;;;47.0;;
21120;SDS011;12519;43.318;21.898;2023-02-23T00:55:49;54.0;;;46.0;;
21120;SDS011;12519;43.318;21.898;2023-02-23T01:00:25;54.0;;;46.0;;
21120;SDS011;12519;43.318;21.898;2023-02-23T01:05:01;50.0;;;45.0;;
21120;SDS011;12519;43.318;21.898;2023-02-23T01:09:38;50.0;;;45.0;;
21120;SDS011;12519;43.318;21.898;2023-02-23T01:14:15;50.0;;;45.0;;
21120;SDS011;12519;43.318;21.898;2023-02-23T01:18:54;48.0;;;42.0;;
21120;SDS011;12519;43.318;21.898;2023-02-23T01:23:40;48.0;;;42.0;;
21120;SDS011;12519;43.318;21.898;2023-02-23T01:28:16;45.0;;;39.0;;
21120;SDS011;12519;43.318;21.898;2023-02-23T01:32:54;45.0;;;39.0;;
21120;SDS011;12519;43.318;21.898;2023-02-23T01:37:34;44.0;;;38.0;;
21120;SDS011;12519;43.318;21.898;2023-02-23T01:42:18;44.0;;;38.0;;
21120;SDS011;12519;43.318;21.898;2023-02-23T01:46:55;44.0;;;37.0;;
21120;SDS011;12519;43.318;21.898;2023-02-23T01:51:38;44.0;;;37.0;;
21120;SDS011;12519;43.318;21.898;2023-02-23T01:56:39;42.0;;;37.0;;
21120;SDS011;12519;43.318;21.898;2023-02-23T02:01:33;42.0;;;37.0;;
21120;SDS011;12519;43.318;21.898;2023-02-23T02:06:14;39.0;;;37.0;;
21120;SDS011;12519;43.318;21.898;2023-02-23T02:11:04;39.0;;;37.0;;
21120;SDS011;12519;43.318;21.898;2023-02-23T02:15:56;40.0;;;36.0;;
21120;SDS011;12519;43.318;21.898;2023-02-23T02:21:46;40.0;;;36.0;;
21120;SDS011;12519;43.318;21.898;2023-02-23T02:27:56;40.0;;;35.0;;
21120;SDS011;12519;43.318;21.898;2023-02-23T02:36:52;39.0;;;34.0;;
21120;SDS011;12519;43.318;21.898;2023-02-23T02:43:00;39.0;;;34.0;;
21120;SDS011;12519;43.318;21.898;2023-02-23T02:48:16;38.0;;;32.0;;
21120;SDS011;12519;43.318;21.898;2023-02-23T02:53:29;38.0;;;32.0;;
21120;SDS011;12519;43.318;21.898;2023-02-23T02:58:34;34.0;;;30.0;;
21120;SDS011;12519;43.318;21.898;2023-02-23T03:03:28;34.0;;;30.0;;
21120;SDS011;12519;43.318;21.898;2023-02-23T03:08:24;31.0;;;27.0;;
21120;SDS011;12519;43.318;21.898;2023-02-23T03:13:41;31.0;;;27.0;;
21120;SDS011;12519;43.318;21.898;2023-02-23T03:19:14;33.0;;;29.0;;
21120;SDS011;12519;43.318;21.898;2023-02-23T03:24:23;33.0;;;29.0;;
21120;SDS011;12519;43.318;21.898;2023-02-23T03:29:37;35.0;;;31.0;;
21120;SDS011;12519;43.318;21.898;2023-02-23T03:34:38;35.0;;;31.0;;
21120;SDS011;12519;43.318;21.898;2023-02-23T03:39:37;32.0;;;29.0;;
21120;SDS011;12519;43.318;21.898;2023-02-23T03:44:34;32.0;;;29.0;;
21120;SDS011;12519;43.318;21.898;2023-02-23T03:49:26;29.0;;;27.0;;
21120;SDS011;12519;43.318;21.898;2023-02-23T03:54:19;29.0;;;27.0;;
21120;SDS011;12519;43.318;21.898;2023-02-23T03:59:14;31.0;;;28.0;;
21120;SDS011;12519;43.318;21.898;2023-02-23T04:04:21;31.0;;;28.0;;
21120;SDS011;12519;43.318;21.898;2023-02-23T04:09:06;33.0;;;28.0;;
21120;SDS011;12519;43.318;21.898;2023-02-23T04:13:48;33.0;;;28.0;;
21120;SDS011;12519;43.318;21.898;2023-02-23T04:18:56;33.0;;;26.0;;
21120;SDS011;12519;43.318;21.898;2023-02-23T04:23:37;33.0;;;26.0;;
21120;SDS011;12519;43.318;21.898;2023-02-23T04:28:18;33.0;;;25.0;;
21120;SDS011;12519;43.318;21.898;2023-02-23T04:33:02;33.0;;;25.0;;
21120;SDS011;12519;43.318;21.898;2023-02-23T04:37:39;30.0;;;23.0;;
21120;SDS011;12519;43.318;21.898;2023-02-23T04:42:17;30.0;;;23.0;;
21120;SDS011;12519;43.318;21.898;2023-02-23T04:46:55;27.0;;;21.0;;
21120;SDS011;12519;43.318;21.898;2023-02-23T04:51:33;27.0;;;21.0;;
21120;SDS011;12519;43.318;21.898;2023-02-23T04:56:10;28.0;;;20.0;;
21120;SDS011;12519;43.318;21.898;2023-02-23T05:00:47;28.0;;;20.0;;
21120;SDS011;12519;43.318;21.898;2023-02-23T05:05:24;28.0;;;19.0;;
21120;SDS011;12519;43.318;21.898;2023-02-23T05:10:01;28.0;;;19.0;;
21120;SDS011;12519;43.318;21.898;2023-02-23T05:14:42;28.0;;;19.0;;
21120;SDS011;12519;43.318;21.898;2023-02-23T05:19:18;24.0;;;18.0;;
21120;SDS011;12519;43.318;21.898;2023-02-23T05:23:56;24.0;;;18.0;;
21120;SDS011;12519;43.318;21.898;2023-02-23T05:28:35;21.0;;;17.0;;
21120;SDS011;12519;43.318;21.898;2023-02-23T05:33:17;21.0;;;17.0;;
21120;SDS011;12519;43.318;21.898;2023-02-23T05:37:54;20.0;;;18.0;;
21120;SDS011;12519;43.318;21.898;2023-02-23T05:42:31;20.0;;;18.0;;
21120;SDS011;12519;43.318;21.898;2023-02-23T05:47:07;19.0;;;18.0;;
21120;SDS011;12519;43.318;21.898;2023-02-23T05:51:44;19.0;;;18.0;;
21120;SDS011;12519;43.318;21.898;2023-02-23T05:56:21;24.0;;;22.0;;
21120;SDS011;12519;43.318;21.898;2023-02-23T06:01:00;24.0;;;22.0;;
21120;SDS011;12519;43.318;21.898;2023-02-23T06:05:37;30.0;;;27.0;;
21120;SDS011;12519;43.318;21.898;2023-02-23T06:10:14;30.0;;;27.0;;
21120;SDS011;12519;43.318;21.898;2023-02-23T06:14:51;30.0;;;27.0;;
21120;SDS011;12519;43.318;21.898;2023-02-23T06:19:27;29.0;;;26.0;;
21120;SDS011;12519;43.318;21.898;2023-02-23T06:24:04;29.0;;;26.0;;
21120;SDS011;12519;43.318;21.898;2023-02-23T06:28:41;28.0;;;24.0;;
21120;SDS011;12519;43.318;21.898;2023-02-23T06:33:17;28.0;;;24.0;;
21120;SDS011;12519;43.318;21.898;2023-02-23T06:37:55;39.0;;;32.0;;
21120;SDS011;12519;43.318;21.898;2023-02-23T06:42:32;39.0;;;32.0;;
21120;SDS011;12519;43.318;21.898;2023-02-23T06:47:09;50.0;;;41.0;;
21120;SDS011;12519;43.318;21.898;2023-02-23T06:51:45;50.0;;;41.0;;
21120;SDS011;12519;43.318;21.898;2023-02-23T06:56:22;48.0;;;39.0;;
21120;SDS011;12519;43.318;21.898;2023-02-23T07:00:59;48.0;;;39.0;;
21120;SDS011;12519;43.318;21.898;2023-02-23T07:05:37;47.0;;;37.0;;
21120;SDS011;12519;43.318;21.898;2023-02-23T07:10:14;47.0;;;37.0;;
21120;SDS011;12519;43.318;21.898;2023-02-23T07:14:53;47.0;;;37.0;;
21120;SDS011;12519;43.318;21.898;2023-02-23T07:19:29;64.0;;;53.0;;
21120;SDS011;12519;43.318;21.898;2023-02-23T07:24:07;64.0;;;53.0;;
21120;SDS011;12519;43.318;21.898;2023-02-23T07:28:44;82.0;;;69.0;;
21120;SDS011;12519;43.318;21.898;2023-02-23T07:33:21;82.0;;;69.0;;
21120;SDS011;12519;43.318;21.898;2023-02-23T07:37:58;64.0;;;54.0;;
21120;SDS011;12519;43.318;21.898;2023-02-23T07:42:35;64.0;;;54.0;;
21120;SDS011;12519;43.318;21.898;2023-02-23T07:47:12;45.0;;;38.0;;
21120;SDS011;12519;43.318;21.898;2023-02-23T07:51:48;45.0;;;38.0;;
21120;SDS011;12519;43.318;21.898;2023-02-23T07:56:25;52.0;;;46.0;;
21120;SDS011;12519;43.318;21.898;2023-02-23T08:01:02;52.0;;;46.0;;
21120;SDS011;12519;43.318;21.898;2023-02-23T08:05:42;60.0;;;53.0;;
21120;SDS011;12519;43.318;21.898;2023-02-23T08:10:18;60.0;;;53.0;;
21120;SDS011;12519;43.318;21.898;2023-02-23T08:14:56;60.0;;;53.0;;
21120;SDS011;12519;43.318;21.898;2023-02-23T08:19:33;55.0;;;49.0;;
21120;SDS011;12519;43.318;21.898;2023-02-23T08:24:10;55.0;;;49.0;;
21120;SDS011;12519;43.318;21.898;2023-02-23T08:28:46;50.0;;;45.0;;
21120;SDS011;12519;43.318;21.898;2023-02-23T08:33:23;50.0;;;45.0;;
21120;SDS011;12519;43.318;21.898;2023-02-23T08:38:00;52.0;;;48.0;;
21120;SDS011;12519;43.318;21.898;2023-02-23T08:42:37;52.0;;;48.0;;
21120;SDS011;12519;43.318;21.898;2023-02-23T08:47:13;55.0;;;50.0;;
21120;SDS011;12519;43.318;21.898;2023-02-23T08:51:50;55.0;;;50.0;;
21120;SDS011;12519;43.318;21.898;2023-02-23T08:56:27;50.0;;;46.0;;
21120;SDS011;12519;43.318;21.898;2023-02-23T09:01:03;50.0;;;46.0;;
21120;SDS011;12519;43.318;21.898;2023-02-23T09:05:40;50.0;;;46.0;;
21120;SDS011;12519;43.318;21.898;2023-02-23T09:10:18;45.0;;;41.0;;
21120;SDS011;12519;43.318;21.898;2023-02-23T09:14:57;45.0;;;41.0;;
21120;SDS011;12519;43.318;21.898;2023-02-23T09:19:33;65.0;;;58.0;;
21120;SDS011;12519;43.318;21.898;2023-02-23T09:24:10;65.0;;;58.0;;
21120;SDS011;12519;43.318;21.898;2023-02-23T09:28:46;85.0;;;74.0;;
21120;SDS011;12519;43.318;21.898;2023-02-23T09:33:25;85.0;;;74.0;;
21120;SDS011;12519;43.318;21.898;2023-02-23T09:38:02;98.0;;;86.0;;
21120;SDS011;12519;43.318;21.898;2023-02-23T09:42:45;98.0;;;86.0;;
21120;SDS011;12519;43.318;21.898;2023-02-23T09:48:04;111.0;;;97.0;;
21120;SDS011;12519;43.318;21.898;2023-02-23T09:53:01;111.0;;;97.0;;
21120;SDS011;12519;43.318;21.898;2023-02-23T09:58:18;90.0;;;78.0;;
21120;SDS011;12519;43.318;21.898;2023-02-23T10:03:11;90.0;;;78.0;;
21120;SDS011;12519;43.318;21.898;2023-02-23T10:08:26;68.0;;;59.0;;
21120;SDS011;12519;43.318;21.898;2023-02-23T10:13:59;68.0;;;59.0;;
21120;SDS011;12519;43.318;21.898;2023-02-23T10:19:43;60.0;;;53.0;;
21120;SDS011;12519;43.318;21.898;2023-02-23T10:25:02;60.0;;;53.0;;
21120;SDS011;12519;43.318;21.898;2023-02-23T10:29:54;52.0;;;47.0;;
21120;SDS011;12519;43.318;21.898;2023-02-23T10:34:36;52.0;;;47.0;;
21120;SDS011;12519;43.318;21.898;2023-02-23T10:39:15;48.0;;;42.0;;
21120;SDS011;12519;43.318;21.898;2023-02-23T10:43:52;48.0;;;42.0;;
21120;SDS011;12519;43.318;21.898;2023-02-23T10:48:30;45.0;;;38.0;;
21120;SDS011;12519;43.318;21.898;2023-02-23T10:53:21;45.0;;;38.0;;
21120;SDS011;12519;43.318;21.898;2023-02-23T10:58:10;40.0;;;35.0;;
21120;SDS011;12519;43.318;21.898;2023-02-23T11:02:55;40.0;;;35.0;;
21120;SDS011;12519;43.318;21.898;2023-02-23T11:07:36;35.0;;;32.0;;
21120;SDS011;12519;43.318;21.898;2023-02-23T11:12:15;35.0;;;32.0;;
21120;SDS011;12519;43.318;21.898;2023-02-23T11:17:22;30.0;;;28.0;;
21120;SDS011;12519;43.318;21.898;2023-02-23T11:22:16;30.0;;;28.0;;
21120;SDS011;12519;43.318;21.898;2023-02-23T11:26:56;24.0;;;23.0;;
21120;SDS011;12519;43.318;21.898;2023-02-23T11:31:56;24.0;;;23.0;;
21120;SDS011;12519;43.318;21.898;2023-02-23T11:36:41;26.0;;;23.0;;
21120;SDS011;12519;43.318;21.898;2023-02-23T11:41:18;26.0;;;23.0;;
21120;SDS011;12519;43.318;21.898;2023-02-23T11:45:59;26.0;;;23.0;;
21120;SDS011;12519;43.318;21.898;2023-02-23T11:50:39;27.0;;;23.0;;
21120;SDS011;12519;43.318;21.898;2023-02-23T11:55:28;27.0;;;23.0;;
21120;SDS011;12519;43.318;21.898;2023-02-23T12:00:20;26.0;;;22.0;;
21120;SDS011;12519;43.318;21.898;2023-02-23T12:05:04;26.0;;;22.0;;
21120;SDS011;12519;43.318;21.898;2023-02-23T12:10:06;24.0;;;21.0;;
21120;SDS011;12519;43.318;21.898;2023-02-23T12:15:19;24.0;;;21.0;;
21120;SDS011;12519;43.318;21.898;2023-02-23T12:20:33;24.0;;;21.0;;
21120;SDS011;12519;43.318;21.898;2023-02-23T12:25:41;24.0;;;21.0;;
21120;SDS011;12519;43.318;21.898;2023-02-23T12:30:49;24.0;;;21.0;;
21120;SDS011;12519;43.318;21.898;2023-02-23T12:36:03;24.0;;;21.0;;
21120;SDS011;12519;43.318;21.898;2023-02-23T12:41:17;20.0;;;16.0;;
21120;SDS011;12519;43.318;21.898;2023-02-23T12:46:23;15.0;;;12.0;;
21120;SDS011;12519;43.318;21.898;2023-02-23T12:51:24;15.0;;;12.0;;
21120;SDS011;12519;43.318;21.898;2023-02-23T12:56:20;15.0;;;12.0;;
21120;SDS011;12519;43.318;21.898;2023-02-23T13:01:35;14.0;;;12.0;;
21120;SDS011;12519;43.318;21.898;2023-02-23T13:06:32;13.0;;;12.0;;
21120;SDS011;12519;43.318;21.898;2023-02-23T13:11:44;13.0;;;12.0;;
21120;SDS011;12519;43.318;21.898;2023-02-23T13:17:03;12.0;;;12.0;;
21120;SDS011;12519;43.318;21.898;2023-02-23T13:22:20;12.0;;;12.0;;
21120;SDS011;12519;43.318;21.898;2023-02-23T13:27:30;12.0;;;11.0;;
21120;SDS011;12519;43.318;21.898;2023-02-23T13:32:32;12.0;;;11.0;;
21120;SDS011;12519;43.318;21.898;2023-02-23T13:37:10;14.0;;;12.0;;
21120;SDS011;12519;43.318;21.898;2023-02-23T13:42:09;14.0;;;12.0;;
21120;SDS011;12519;43.318;21.898;2023-02-23T13:47:32;16.0;;;12.0;;
21120;SDS011;12519;43.318;21.898;2023-02-23T13:52:48;16.0;;;12.0;;
21120;SDS011;12519;43.318;21.898;2023-02-23T13:57:39;14.0;;;11.0;;
21120;SDS011;12519;43.318;21.898;2023-02-23T14:02:35;14.0;;;11.0;;
21120;SDS011;12519;43.318;21.898;2023-02-23T14:07:16;12.0;;;10.0;;
21120;SDS011;12519;43.318;21.898;2023-02-23T14:12:12;12.0;;;10.0;;
21120;SDS011;12519;43.318;21.898;2023-02-23T14:17:09;12.0;;;11.0;;
21120;SDS011;12519;43.318;21.898;2023-02-23T14:22:33;12.0;;;11.0;;
21120;SDS011;12519;43.318;21.898;2023-02-23T14:27:17;12.0;;;12.0;;
21120;SDS011;12519;43.318;21.898;2023-02-23T14:32:26;12.0;;;12.0;;
21120;SDS011;12519;43.318;21.898;2023-02-23T14:37:13;13.0;;;12.0;;
21120;SDS011;12519;43.318;21.898;2023-02-23T14:42:13;13.0;;;12.0;;
21120;SDS011;12519;43.318;21.898;2023-02-23T14:47:05;14.0;;;12.0;;
21120;SDS011;12519;43.318;21.898;2023-02-23T14:52:03;14.0;;;12.0;;
21120;SDS011;12519;43.318;21.898;2023-02-23T14:57:03;13.0;;;12.0;;
21120;SDS011;12519;43.318;21.898;2023-02-23T15:02:01;13.0;;;12.0;;
21120;SDS011;12519;43.318;21.898;2023-02-23T15:07:01;12.0;;;12.0;;
21120;SDS011;12519;43.318;21.898;2023-02-23T15:11:55;12.0;;;12.0;;
21120;SDS011;12519;43.318;21.898;2023-02-23T15:17:01;16.0;;;14.0;;
21120;SDS011;12519;43.318;21.898;2023-02-23T15:21:38;16.0;;;14.0;;
21120;SDS011;12519;43.318;21.898;2023-02-23T15:26:15;16.0;;;14.0;;
21120;SDS011;12519;43.318;21.898;2023-02-23T15:31:07;19.0;;;17.0;;
21120;SDS011;12519;43.318;21.898;2023-02-23T15:35:47;19.0;;;17.0;;
21120;SDS011;12519;43.318;21.898;2023-02-23T15:40:43;18.0;;;16.0;;
21120;SDS011;12519;43.318;21.898;2023-02-23T15:45:35;18.0;;;16.0;;
21120;SDS011;12519;43.318;21.898;2023-02-23T15:50:26;16.0;;;14.0;;
21120;SDS011;12519;43.318;21.898;2023-02-23T15:55:19;16.0;;;14.0;;
21120;SDS011;12519;43.318;21.898;2023-02-23T16:00:14;16.0;;;13.0;;
21120;SDS011;12519;43.318;21.898;2023-02-23T16:05:16;16.0;;;13.0;;
21120;SDS011;12519;43.318;21.898;2023-02-23T16:10:01;15.0;;;12.0;;
21120;SDS011;12519;43.318;21.898;2023-02-23T16:15:03;15.0;;;12.0;;
21120;SDS011;12519;43.318;21.898;2023-02-23T16:20:12;16.0;;;13.0;;
21120;SDS011;12519;43.318;21.898;2023-02-23T16:25:14;16.0;;;13.0;;
21120;SDS011;12519;43.318;21.898;2023-02-23T16:30:03;18.0;;;14.0;;
21120;SDS011;12519;43.318;21.898;2023-02-23T16:35:14;18.0;;;14.0;;
21120;SDS011;12519;43.318;21.898;2023-02-23T16:39:55;18.0;;;15.0;;
21120;SDS011;12519;43.318;21.898;2023-02-23T16:44:31;18.0;;;15.0;;
21120;SDS011;12519;43.318;21.898;2023-02-23T16:49:08;19.0;;;16.0;;
21120;SDS011;12519;43.318;21.898;2023-02-23T16:53:47;19.0;;;16.0;;
21120;SDS011;12519;43.318;21.898;2023-02-23T16:58:24;20.0;;;16.0;;
21120;SDS011;12519;43.318;21.898;2023-02-23T17:03:03;20.0;;;16.0;;
21120;SDS011;12519;43.318;21.898;2023-02-23T17:07:40;22.0;;;17.0;;
21120;SDS011;12519;43.318;21.898;2023-02-23T17:12:16;22.0;;;17.0;;
21120;SDS011;12519;43.318;21.898;2023-02-23T17:16:53;22.0;;;17.0;;
21120;SDS011;12519;43.318;21.898;2023-02-23T17:21:30;22.0;;;17.0;;
21120;SDS011;12519;43.318;21.898;2023-02-23T17:26:08;22.0;;;17.0;;
21120;SDS011;12519;43.318;21.898;2023-02-23T17:40:22;16.0;;;15.0;;
21120;SDS011;12519;43.318;21.898;2023-02-23T17:45:08;16.0;;;15.0;;
21120;SDS011;12519;43.318;21.898;2023-02-23T17:49:46;16.0;;;15.0;;
21120;SDS011;12519;43.318;21.898;2023-02-23T17:54:23;16.0;;;15.0;;
21120;SDS011;12519;43.318;21.898;2023-02-23T17:59:00;19.0;;;15.0;;
21120;SDS011;12519;43.318;21.898;2023-02-23T18:03:38;19.0;;;15.0;;
21120;SDS011;12519;43.318;21.898;2023-02-23T18:08:15;22.0;;;15.0;;
21120;SDS011;12519;43.318;21.898;2023-02-23T18:12:53;22.0;;;15.0;;
21120;SDS011;12519;43.318;21.898;2023-02-23T18:17:29;20.0;;;16.0;;
21120;SDS011;12519;43.318;21.898;2023-02-23T18:22:07;20.0;;;16.0;;
21120;SDS011;12519;43.318;21.898;2023-02-23T18:26:43;20.0;;;16.0;;
21120;SDS011;12519;43.318;21.898;2023-02-23T18:31:26;18.0;;;16.0;;
21120;SDS011;12519;43.318;21.898;2023-02-23T18:36:17;18.0;;;16.0;;
21120;SDS011;12519;43.318;21.898;2023-02-23T18:40:56;22.0;;;18.0;;
21120;SDS011;12519;43.318;21.898;2023-02-23T18:45:33;22.0;;;18.0;;
21120;SDS011;12519;43.318;21.898;2023-02-23T18:50:12;25.0;;;20.0;;
21120;SDS011;12519;43.318;21.898;2023-02-23T18:54:49;25.0;;;20.0;;
21120;SDS011;12519;43.318;21.898;2023-02-23T18:59:25;23.0;;;18.0;;
21120;SDS011;12519;43.318;21.898;2023-02-23T19:04:06;23.0;;;18.0;;
21120;SDS011;12519;43.318;21.898;2023-02-23T19:08:49;21.0;;;17.0;;
21120;SDS011;12519;43.318;21.898;2023-02-23T19:13:31;21.0;;;17.0;;
21120;SDS011;12519;43.318;21.898;2023-02-23T19:18:08;23.0;;;20.0;;
21120;SDS011;12519;43.318;21.898;2023-02-23T19:22:44;23.0;;;20.0;;
21120;SDS011;12519;43.318;21.898;2023-02-23T19:27:21;25.0;;;22.0;;
21120;SDS011;12519;43.318;21.898;2023-02-23T19:31:57;25.0;;;22.0;;
21120;SDS011;12519;43.318;21.898;2023-02-23T19:36:33;25.0;;;22.0;;
21120;SDS011;12519;43.318;21.898;2023-02-23T19:41:16;22.0;;;18.0;;
21120;SDS011;12519;43.318;21.898;2023-02-23T19:46:01;22.0;;;18.0;;
21120;SDS011;12519;43.318;21.898;2023-02-23T19:50:39;20.0;;;15.0;;
21120;SDS011;12519;43.318;21.898;2023-02-23T19:55:15;20.0;;;15.0;;
21120;SDS011;12519;43.318;21.898;2023-02-23T19:59:51;20.0;;;17.0;;
21120;SDS011;12519;43.318;21.898;2023-02-23T20:04:28;20.0;;;17.0;;
21120;SDS011;12519;43.318;21.898;2023-02-23T20:09:04;21.0;;;19.0;;
21120;SDS011;12519;43.318;21.898;2023-02-23T20:13:41;21.0;;;19.0;;
21120;SDS011;12519;43.318;21.898;2023-02-23T20:18:18;20.0;;;17.0;;
21120;SDS011;12519;43.318;21.898;2023-02-23T20:22:55;20.0;;;17.0;;
21120;SDS011;12519;43.318;21.898;2023-02-23T20:27:35;19.0;;;15.0;;
21120;SDS011;12519;43.318;21.898;2023-02-23T20:32:12;19.0;;;15.0;;
21120;SDS011;12519;43.318;21.898;2023-02-23T20:36:48;19.0;;;15.0;;
21120;SDS011;12519;43.318;21.898;2023-02-23T20:41:26;18.0;;;15.0;;
21120;SDS011;12519;43.318;21.898;2023-02-23T20:46:05;18.0;;;15.0;;
21120;SDS011;12519;43.318;21.898;2023-02-23T20:50:42;17.0;;;15.0;;
21120;SDS011;12519;43.318;21.898;2023-02-23T20:55:19;17.0;;;15.0;;
21120;SDS011;12519;43.318;21.898;2023-02-23T20:59:57;18.0;;;16.0;;
21120;SDS011;12519;43.318;21.898;2023-02-23T21:04:34;18.0;;;16.0;;
21120;SDS011;12519;43.318;21.898;2023-02-23T21:09:11;20.0;;;17.0;;
21120;SDS011;12519;43.318;21.898;2023-02-23T21:13:48;20.0;;;17.0;;
21120;SDS011;12519;43.318;21.898;2023-02-23T21:18:25;22.0;;;18.0;;
21120;SDS011;12519;43.318;21.898;2023-02-23T21:23:02;22.0;;;18.0;;
21120;SDS011;12519;43.318;21.898;2023-02-23T21:27:40;23.0;;;20.0;;
21120;SDS011;12519;43.318;21.898;2023-02-23T21:32:16;23.0;;;20.0;;
21120;SDS011;12519;43.318;21.898;2023-02-23T21:36:53;23.0;;;20.0;;
21120;SDS011;12519;43.318;21.898;2023-02-23T21:41:29;22.0;;;20.0;;
21120;SDS011;12519;43.318;21.898;2023-02-23T21:46:15;22.0;;;20.0;;
21120;SDS011;12519;43.318;21.898;2023-02-23T21:50:52;20.0;;;19.0;;
21120;SDS011;12519;43.318;21.898;2023-02-23T21:55:28;20.0;;;19.0;;
21120;SDS011;12519;43.318;21.898;2023-02-23T22:00:11;21.0;;;18.0;;
21120;SDS011;12519;43.318;21.898;2023-02-23T22:04:50;21.0;;;18.0;;
21120;SDS011;12519;43.318;21.898;2023-02-23T22:09:27;22.0;;;17.0;;
21120;SDS011;12519;43.318;21.898;2023-02-23T22:14:04;22.0;;;17.0;;
21120;SDS011;12519;43.318;21.898;2023-02-23T22:18:42;20.0;;;17.0;;
21120;SDS011;12519;43.318;21.898;2023-02-23T22:23:18;20.0;;;17.0;;
21120;SDS011;12519;43.318;21.898;2023-02-23T22:27:55;18.0;;;17.0;;
21120;SDS011;12519;43.318;21.898;2023-02-23T22:32:31;18.0;;;17.0;;
21120;SDS011;12519;43.318;21.898;2023-02-23T22:37:07;18.0;;;17.0;;
21120;SDS011;12519;43.318;21.898;2023-02-23T22:41:45;20.0;;;18.0;;
21120;SDS011;12519;43.318;21.898;2023-02-23T22:46:24;20.0;;;18.0;;
21120;SDS011;12519;43.318;21.898;2023-02-23T22:51:02;23.0;;;20.0;;
21120;SDS011;12519;43.318;21.898;2023-02-23T22:55:45;23.0;;;20.0;;
21120;SDS011;12519;43.318;21.898;2023-02-23T23:00:27;24.0;;;21.0;;
21120;SDS011;12519;43.318;21.898;2023-02-23T23:05:07;24.0;;;21.0;;
21120;SDS011;12519;43.318;21.898;2023-02-23T23:09:45;24.0;;;22.0;;
21120;SDS011;12519;43.318;21.898;2023-02-23T23:14:23;24.0;;;22.0;;
21120;SDS011;12519;43.318;21.898;2023-02-23T23:19:06;27.0;;;22.0;;
21120;SDS011;12519;43.318;21.898;2023-02-23T23:23:44;27.0;;;22.0;;
21120;SDS011;12519;43.318;21.898;2023-02-23T23:28:25;30.0;;;21.0;;
21120;SDS011;12519;43.318;21.898;2023-02-23T23:33:02;30.0;;;21.0;;
21120;SDS011;12519;43.318;21.898;2023-02-23T23:37:39;30.0;;;21.0;;
21120;SDS011;12519;43.318;21.898;2023-02-23T23:42:15;28.0;;;21.0;;
21120;SDS011;12519;43.318;21.898;2023-02-23T23:46:51;28.0;;;21.0;;
21120;SDS011;12519;43.318;21.898;2023-02-23T23:51:33;27.0;;;21.0;;
21120;SDS011;12519;43.318;21.898;2023-02-23T23:56:12;27.0;;;21.0;;
